createdAt,value
2019-06-20T00:01:57.695Z,11.20
2019-06-20T00:04:24.679Z,4.00
2019-06-20T00:06:51.706Z,8.10
2019-06-20T00:09:18.871Z,9.00
2019-06-20T00:11:45.839Z,8.60
2019-06-20T00:14:12.838Z,4.30
2019-06-20T00:16:39.935Z,3.80
2019-06-20T00:19:06.967Z,5.17
2019-06-20T00:21:34.001Z,5.30
2019-06-20T00:24:01.030Z,5.10
2019-06-20T00:26:28.068Z,3.50
2019-06-20T00:28:55.052Z,2.57
2019-06-20T00:31:22.112Z,4.77
2019-06-20T00:33:49.543Z,5.30
2019-06-20T00:36:16.839Z,3.07
2019-06-20T00:38:44.100Z,5.73
2019-06-20T00:41:11.563Z,7.43
2019-06-20T00:43:38.922Z,4.70
2019-06-20T00:46:06.386Z,12.43
2019-06-20T00:48:33.705Z,4.13
2019-06-20T00:51:00.801Z,4.57
2019-06-20T00:53:28.166Z,8.43
2019-06-20T00:55:55.525Z,3.83
2019-06-20T00:58:23.087Z,2.63
2019-06-20T01:00:50.555Z,6.13
2019-06-20T01:03:17.911Z,4.07
2019-06-20T01:05:45.274Z,6.80
2019-06-20T01:08:12.632Z,6.23
2019-06-20T01:10:40.002Z,4.97
2019-06-20T01:13:07.158Z,3.10
2019-06-20T01:15:34.526Z,5.60
2019-06-20T01:18:02.088Z,4.00
2019-06-20T01:20:29.345Z,6.37
2019-06-20T01:22:56.706Z,5.77
2019-06-20T01:25:37.066Z,5.67
2019-06-20T01:28:04.529Z,3.10
2019-06-20T01:30:31.990Z,4.33
2019-06-20T01:32:59.250Z,6.63
2019-06-20T01:35:26.609Z,9.73
2019-06-20T01:37:53.766Z,3.33
2019-06-20T01:40:21.229Z,4.37
2019-06-20T01:42:48.589Z,5.57
2019-06-20T01:45:15.954Z,4.67
2019-06-20T01:47:43.415Z,5.37
2019-06-20T01:50:10.777Z,2.70
2019-06-20T01:52:38.031Z,3.50
2019-06-20T01:55:05.407Z,4.13
2019-06-20T01:57:32.957Z,12.53
2019-06-20T02:00:00.425Z,9.47
2019-06-20T02:02:27.781Z,5.30
2019-06-20T02:04:55.245Z,4.37
2019-06-20T02:07:22.604Z,2.97
2019-06-20T02:09:49.965Z,8.13
2019-06-20T02:12:17.327Z,4.63
2019-06-20T02:14:44.489Z,2.90
2019-06-20T02:17:11.844Z,3.80
2019-06-20T02:19:39.307Z,5.27
2019-06-20T02:22:06.775Z,7.67
2019-06-20T02:24:34.130Z,3.00
2019-06-20T02:27:01.596Z,9.47
2019-06-20T02:29:28.748Z,6.50
2019-06-20T02:31:56.212Z,3.80
2019-06-20T02:34:23.572Z,10.17
2019-06-20T02:36:50.937Z,4.63
2019-06-20T02:39:18.293Z,4.40
2019-06-20T02:41:45.654Z,3.50
2019-06-20T02:44:29.056Z,7.80
2019-06-20T02:46:41.910Z,3.77
2019-06-20T02:49:09.375Z,5.20
2019-06-20T02:51:36.737Z,4.63
2019-06-20T02:54:04.097Z,4.87
2019-06-20T02:56:31.561Z,3.90
2019-06-20T02:58:59.116Z,3.20
2019-06-20T03:01:26.487Z,5.30
2019-06-20T03:03:53.947Z,4.80
2019-06-20T03:06:21.206Z,2.57
2019-06-20T03:08:48.521Z,4.40
2019-06-20T03:11:15.854Z,5.47
2019-06-20T03:13:43.287Z,2.63
2019-06-20T03:16:10.755Z,3.70
2019-06-20T03:18:38.215Z,7.30
2019-06-20T03:21:05.573Z,2.43
2019-06-20T03:23:32.938Z,3.20
2019-06-20T03:26:00.397Z,4.43
2019-06-20T03:28:27.861Z,6.10
2019-06-20T03:30:55.324Z,3.20
2019-06-20T03:33:23.623Z,7.30
2019-06-20T03:35:50.918Z,4.03
2019-06-20T03:38:18.225Z,5.30
2019-06-20T03:40:45.300Z,3.67
2019-06-20T03:43:12.638Z,5.10
2019-06-20T03:45:40.102Z,6.13
2019-06-20T03:48:07.467Z,3.40
2019-06-20T03:50:34.720Z,5.47
2019-06-20T03:53:01.980Z,7.47
2019-06-20T03:55:29.404Z,4.93
2019-06-20T03:57:56.688Z,9.50
2019-06-20T04:00:24.086Z,4.80
2019-06-20T04:02:51.142Z,5.53
2019-06-20T04:05:18.163Z,4.90
2019-06-20T04:07:45.157Z,4.30
2019-06-20T04:10:12.139Z,4.47
2019-06-20T04:12:39.180Z,5.87
2019-06-20T04:15:18.664Z,8.50
2019-06-20T04:17:35.039Z,5.23
2019-06-20T04:20:02.075Z,5.03
2019-06-20T04:22:29.093Z,7.63
2019-06-20T04:24:56.129Z,4.53
2019-06-20T04:27:23.198Z,4.90
2019-06-20T04:29:50.183Z,11.80
2019-06-20T04:32:17.191Z,7.47
2019-06-20T04:34:44.348Z,10.20
2019-06-20T04:37:11.710Z,4.90
2019-06-20T04:39:39.069Z,6.20
2019-06-20T04:42:06.118Z,11.60
2019-06-20T04:44:33.481Z,14.00
2019-06-20T04:47:06.041Z,5.07
2019-06-20T04:49:33.059Z,10.40
2019-06-20T04:52:00.077Z,11.17
2019-06-20T04:54:27.085Z,4.67
2019-06-20T04:56:54.132Z,6.27
2019-06-20T04:59:21.139Z,5.87
2019-06-20T05:01:48.157Z,7.03
2019-06-20T05:04:15.190Z,8.30
2019-06-20T05:06:42.275Z,5.23
2019-06-20T05:09:09.310Z,6.77
2019-06-20T05:11:36.377Z,5.23
2019-06-20T05:14:03.556Z,10.43
2019-06-20T05:16:30.536Z,18.60
2019-06-20T05:18:57.516Z,19.17
2019-06-20T05:21:24.815Z,9.60
2019-06-20T05:23:51.915Z,10.20
2019-06-20T05:26:19.282Z,8.70
2019-06-20T05:28:46.599Z,14.47
2019-06-20T05:31:13.949Z,9.40
2019-06-20T05:33:41.413Z,15.63
2019-06-20T05:36:08.772Z,11.50
2019-06-20T05:38:36.087Z,7.30
2019-06-20T05:41:03.157Z,15.57
2019-06-20T05:43:30.446Z,7.07
2019-06-20T05:46:08.847Z,4.73
2019-06-20T05:48:26.701Z,9.33
2019-06-20T05:50:53.965Z,9.10
2019-06-20T05:53:21.224Z,11.13
2019-06-20T05:55:48.377Z,6.80
2019-06-20T05:58:15.838Z,8.23
2019-06-20T06:00:42.993Z,11.83
2019-06-20T06:03:13.585Z,12.70
2019-06-20T06:05:38.936Z,8.20
2019-06-20T06:08:05.939Z,9.60
2019-06-20T06:10:32.970Z,6.20
2019-06-20T06:13:00.505Z,14.83
2019-06-20T06:15:27.493Z,9.30
2019-06-20T06:17:54.512Z,8.67
2019-06-20T06:20:21.557Z,7.60
2019-06-20T06:22:48.569Z,7.83
2019-06-20T06:25:15.621Z,8.83
2019-06-20T06:27:42.695Z,22.03
2019-06-20T06:30:09.733Z,18.30
2019-06-20T06:32:40.453Z,15.00
2019-06-20T06:35:05.629Z,20.47
2019-06-20T06:37:32.690Z,19.37
2019-06-20T06:39:59.705Z,9.03
2019-06-20T06:42:26.719Z,15.30
2019-06-20T06:44:53.766Z,10.23
2019-06-20T06:47:20.786Z,7.83
2019-06-20T06:49:47.935Z,16.20
2019-06-20T06:52:14.957Z,21.57
2019-06-20T06:54:41.980Z,7.50
2019-06-20T06:57:09.001Z,8.37
2019-06-20T06:59:36.014Z,8.87
2019-06-20T07:02:03.099Z,10.33
2019-06-20T07:04:30.091Z,8.60
2019-06-20T07:06:57.066Z,9.67
2019-06-20T07:09:24.105Z,12.10
2019-06-20T07:11:51.169Z,12.37
2019-06-20T07:14:18.163Z,21.50
2019-06-20T07:16:59.467Z,10.40
2019-06-20T07:19:14.011Z,12.20
2019-06-20T07:21:41.053Z,8.30
2019-06-20T07:24:08.082Z,10.33
2019-06-20T07:26:35.069Z,7.70
2019-06-20T07:29:02.126Z,8.33
2019-06-20T07:31:29.128Z,8.17
2019-06-20T07:33:56.169Z,9.73
2019-06-20T07:36:23.276Z,7.00
2019-06-20T07:38:50.545Z,9.43
2019-06-20T07:41:17.625Z,14.37
2019-06-20T07:43:44.636Z,13.23
2019-06-20T07:46:11.686Z,11.40
2019-06-20T07:48:38.683Z,9.83
2019-06-20T07:51:05.728Z,7.30
2019-06-20T07:53:32.765Z,8.00
2019-06-20T07:55:59.801Z,7.90
2019-06-20T07:58:26.800Z,14.20
2019-06-20T08:00:53.962Z,8.63
2019-06-20T08:03:21.061Z,8.83
2019-06-20T08:05:48.097Z,12.37
2019-06-20T08:08:15.101Z,7.17
2019-06-20T08:10:42.171Z,14.07
2019-06-20T08:13:09.176Z,8.70
2019-06-20T08:15:36.191Z,10.77
2019-06-20T08:18:03.234Z,14.33
2019-06-20T08:20:30.334Z,11.53
2019-06-20T08:22:57.520Z,9.23
2019-06-20T08:25:24.498Z,12.53
2019-06-20T08:27:52.018Z,9.27
2019-06-20T08:30:28.162Z,9.83
2019-06-20T08:32:57.417Z,11.53
2019-06-20T08:35:24.577Z,10.60
2019-06-20T08:37:51.704Z,12.60
2019-06-20T08:40:18.729Z,9.60
2019-06-20T08:42:45.720Z,11.20
2019-06-20T08:45:12.803Z,11.57
2019-06-20T08:47:39.809Z,11.20
2019-06-20T08:50:06.844Z,12.40
2019-06-20T08:52:33.888Z,8.13
2019-06-20T08:55:01.103Z,9.53
2019-06-20T08:57:28.402Z,13.87
2019-06-20T08:59:55.994Z,14.77
2019-06-20T09:02:24.226Z,8.50
2019-06-20T09:04:51.269Z,14.33
2019-06-20T09:07:18.321Z,7.90
2019-06-20T09:09:45.321Z,9.77
2019-06-20T09:12:12.334Z,12.93
2019-06-20T09:14:39.378Z,8.23
2019-06-20T09:17:06.363Z,8.80
2019-06-20T09:19:33.378Z,8.30
2019-06-20T09:22:00.585Z,12.00
2019-06-20T09:24:27.770Z,6.70
2019-06-20T09:26:55.445Z,8.47
2019-06-20T09:29:22.502Z,6.73
2019-06-20T09:31:49.554Z,10.90
2019-06-20T09:34:16.556Z,10.07
2019-06-20T09:36:43.548Z,15.33
2019-06-20T09:39:10.688Z,10.30
2019-06-20T09:41:37.721Z,7.90
2019-06-20T09:44:04.706Z,9.10
2019-06-20T09:46:31.735Z,10.57
2019-06-20T09:48:58.824Z,9.10
2019-06-20T09:51:25.854Z,12.70
2019-06-20T09:53:53.899Z,10.10
2019-06-20T09:56:20.934Z,9.37
2019-06-20T09:58:48.319Z,10.20
2019-06-20T10:01:16.567Z,10.63
2019-06-20T10:03:43.640Z,10.37
2019-06-20T10:06:13.763Z,8.50
2019-06-20T10:08:39.451Z,11.30
2019-06-20T10:11:06.483Z,13.63
2019-06-20T10:13:33.595Z,11.13
2019-06-20T10:16:00.607Z,13.90
2019-06-20T10:18:27.624Z,17.90
2019-06-20T10:20:54.641Z,25.60
2019-06-20T10:23:22.080Z,21.73
2019-06-20T10:25:49.331Z,22.30
2019-06-20T10:28:16.436Z,18.83
2019-06-20T10:30:44.752Z,19.57
2019-06-20T10:33:12.361Z,15.37
2019-06-20T10:35:40.278Z,21.63
2019-06-20T10:38:07.493Z,13.90
2019-06-20T10:40:34.553Z,18.73
2019-06-20T10:43:01.584Z,15.90
2019-06-20T10:45:28.597Z,15.93
2019-06-20T10:47:55.607Z,23.03
2019-06-20T10:50:22.652Z,22.30
2019-06-20T10:52:50.096Z,18.70
2019-06-20T10:55:17.258Z,12.40
2019-06-20T10:57:44.545Z,11.67
2019-06-20T11:00:12.820Z,15.53
2019-06-20T11:02:41.678Z,15.70
2019-06-20T11:05:08.664Z,11.40
2019-06-20T11:07:35.751Z,16.73
2019-06-20T11:10:03.104Z,15.40
2019-06-20T11:12:42.553Z,12.17
2019-06-20T11:14:58.951Z,11.53
2019-06-20T11:17:26.097Z,9.90
2019-06-20T11:19:53.077Z,10.90
2019-06-20T11:22:20.082Z,15.60
2019-06-20T11:24:47.452Z,18.50
2019-06-20T11:27:14.522Z,11.20
2019-06-20T11:29:41.676Z,12.20
2019-06-20T11:32:08.915Z,13.20
2019-06-20T11:34:37.728Z,12.07
2019-06-20T11:37:04.775Z,10.83
2019-06-20T11:39:31.799Z,11.47
2019-06-20T11:41:58.841Z,18.30
2019-06-20T11:44:25.847Z,22.43
2019-06-20T11:46:52.832Z,13.63
2019-06-20T11:49:19.863Z,26.80
2019-06-20T11:51:46.828Z,14.87
2019-06-20T11:54:13.992Z,14.80
2019-06-20T11:56:40.975Z,9.30
2019-06-20T11:59:07.983Z,14.17
2019-06-20T12:01:35.095Z,12.30
2019-06-20T12:04:02.357Z,13.17
2019-06-20T12:06:29.716Z,22.30
2019-06-20T12:08:57.176Z,14.17
2019-06-20T12:11:24.444Z,10.50
2019-06-20T12:13:51.482Z,11.27
2019-06-20T12:16:18.643Z,12.73
2019-06-20T12:18:47.227Z,23.23
2019-06-20T12:21:14.322Z,13.10
2019-06-20T12:23:42.475Z,19.40
2019-06-20T12:26:09.660Z,13.50
2019-06-20T12:28:39.007Z,13.23
2019-06-20T12:31:18.487Z,14.37
2019-06-20T12:33:34.371Z,11.37
2019-06-20T12:36:01.416Z,14.20
2019-06-20T12:38:28.533Z,12.43
2019-06-20T12:40:55.570Z,12.23
2019-06-20T12:43:22.623Z,29.47
2019-06-20T12:45:49.728Z,22.13
2019-06-20T12:48:16.745Z,10.00
2019-06-20T12:50:45.021Z,12.50
2019-06-20T12:53:12.256Z,14.97
2019-06-20T12:55:40.353Z,20.60
2019-06-20T12:58:07.469Z,11.67
2019-06-20T13:00:34.512Z,15.57
2019-06-20T13:03:01.524Z,15.83
2019-06-20T13:05:28.549Z,10.73
2019-06-20T13:07:55.584Z,18.10
2019-06-20T13:10:22.685Z,28.37
2019-06-20T13:12:49.752Z,16.40
2019-06-20T13:15:16.743Z,12.40
2019-06-20T13:17:45.021Z,10.77
2019-06-20T13:20:12.559Z,12.20
2019-06-20T13:22:41.010Z,12.00
2019-06-20T13:25:08.504Z,11.83
2019-06-20T13:27:35.537Z,16.50
2019-06-20T13:30:02.553Z,11.10
2019-06-20T13:32:29.603Z,11.87
2019-06-20T13:34:56.614Z,16.80
2019-06-20T13:37:23.659Z,15.93
2019-06-20T13:39:50.732Z,18.10
2019-06-20T13:42:17.793Z,10.17
2019-06-20T13:44:44.788Z,10.37
2019-06-20T13:47:11.797Z,16.50
2019-06-20T13:49:39.852Z,10.80
2019-06-20T13:52:07.672Z,12.90
2019-06-20T13:54:34.666Z,9.77
2019-06-20T13:57:01.716Z,11.77
2019-06-20T13:59:28.748Z,7.73
2019-06-20T14:02:06.246Z,9.23
2019-06-20T14:04:24.598Z,9.00
2019-06-20T14:06:51.620Z,8.17
2019-06-20T14:09:18.627Z,8.60
2019-06-20T14:11:45.638Z,10.27
2019-06-20T14:14:12.631Z,10.30
2019-06-20T14:16:41.243Z,7.73
2019-06-20T14:19:09.370Z,9.87
2019-06-20T14:21:36.491Z,9.20
2019-06-20T14:24:03.488Z,8.30
2019-06-20T14:26:30.482Z,11.40
2019-06-20T14:28:57.529Z,14.40
2019-06-20T14:31:24.541Z,9.83
2019-06-20T14:33:51.539Z,11.43
2019-06-20T14:36:18.583Z,10.33
2019-06-20T14:38:45.772Z,8.33
2019-06-20T14:41:13.024Z,10.13
2019-06-20T14:43:40.047Z,7.60
2019-06-20T14:46:07.060Z,12.00
2019-06-20T14:48:34.073Z,11.80
2019-06-20T14:51:01.094Z,9.23
2019-06-20T14:53:28.179Z,9.07
2019-06-20T14:55:55.196Z,9.07
2019-06-20T14:58:22.269Z,9.20
2019-06-20T15:00:49.869Z,8.17
2019-06-20T15:03:17.334Z,12.13
2019-06-20T15:05:48.325Z,11.30
2019-06-20T15:08:15.735Z,12.80
2019-06-20T15:10:42.992Z,11.90
2019-06-20T15:13:10.252Z,6.87
2019-06-20T15:15:37.565Z,9.90
2019-06-20T15:18:04.868Z,11.80
2019-06-20T15:20:32.089Z,11.37
2019-06-20T15:22:59.059Z,10.53
2019-06-20T15:25:26.542Z,9.87
2019-06-20T15:27:55.327Z,7.03
2019-06-20T15:30:23.004Z,7.60
2019-06-20T15:33:04.381Z,9.07
2019-06-20T15:35:19.465Z,12.30
2019-06-20T15:37:48.432Z,10.00
2019-06-20T15:40:16.625Z,13.37
2019-06-20T15:42:44.027Z,7.47
2019-06-20T15:45:11.157Z,8.23
2019-06-20T15:47:38.334Z,5.90
2019-06-20T15:50:05.571Z,6.83
2019-06-20T15:52:32.931Z,8.33
2019-06-20T15:55:00.208Z,9.40
2019-06-20T15:57:27.659Z,12.67
2019-06-20T15:59:54.970Z,9.83
2019-06-20T16:02:22.275Z,10.70
2019-06-20T16:04:49.331Z,10.17
2019-06-20T16:07:16.389Z,8.27
2019-06-20T16:09:43.394Z,12.53
2019-06-20T16:12:10.394Z,10.60
2019-06-20T16:14:37.460Z,10.87
2019-06-20T16:17:04.446Z,10.50
2019-06-20T16:19:31.449Z,8.00
2019-06-20T16:21:58.549Z,9.90
2019-06-20T16:24:25.548Z,8.13
2019-06-20T16:26:52.601Z,8.30
2019-06-20T16:29:19.651Z,10.30
2019-06-20T16:31:46.713Z,7.20
2019-06-20T16:34:13.757Z,9.23
2019-06-20T16:36:40.760Z,11.97
2019-06-20T16:39:08.015Z,8.83
2019-06-20T16:41:35.091Z,8.77
2019-06-20T16:44:02.088Z,9.50
2019-06-20T16:46:29.121Z,11.47
2019-06-20T16:48:56.146Z,9.13
2019-06-20T16:51:23.257Z,16.90
2019-06-20T16:53:50.295Z,11.17
2019-06-20T16:56:18.106Z,18.47
2019-06-20T16:58:45.249Z,17.40
2019-06-20T17:01:12.250Z,14.70
2019-06-20T17:03:42.019Z,16.63
2019-06-20T17:06:08.078Z,12.70
2019-06-20T17:08:35.117Z,18.80
2019-06-20T17:11:02.129Z,11.13
2019-06-20T17:13:29.177Z,12.60
2019-06-20T17:15:56.171Z,14.83
2019-06-20T17:18:23.301Z,8.73
2019-06-20T17:20:50.712Z,9.97
2019-06-20T17:23:18.430Z,8.80
2019-06-20T17:25:46.151Z,9.47
2019-06-20T17:28:13.698Z,9.20
2019-06-20T17:30:41.171Z,7.40
2019-06-20T17:33:08.185Z,10.60
2019-06-20T17:35:35.189Z,6.73
2019-06-20T17:38:02.229Z,9.87
2019-06-20T17:40:29.720Z,6.63
2019-06-20T17:42:58.036Z,9.37
2019-06-20T17:45:27.324Z,7.90
2019-06-20T17:47:54.725Z,9.53
2019-06-20T17:50:21.702Z,7.23
2019-06-20T17:52:48.718Z,7.10
2019-06-20T17:55:15.731Z,9.53
2019-06-20T17:57:42.859Z,10.90
2019-06-20T18:00:09.873Z,16.13
2019-06-20T18:02:36.878Z,8.40
2019-06-20T18:05:04.446Z,10.30
2019-06-20T18:07:31.435Z,8.10
2019-06-20T18:09:58.475Z,14.90
2019-06-20T18:12:25.942Z,9.53
2019-06-20T18:14:53.426Z,8.27
2019-06-20T18:17:20.446Z,10.63
2019-06-20T18:19:47.715Z,16.17
2019-06-20T18:22:15.133Z,11.53
2019-06-20T18:24:42.436Z,16.53
2019-06-20T18:27:09.682Z,28.33
2019-06-20T18:29:37.064Z,8.33
2019-06-20T18:32:04.517Z,10.50
2019-06-20T18:34:31.833Z,8.80
2019-06-20T18:36:58.864Z,8.60
2019-06-20T18:39:26.190Z,13.90
2019-06-20T18:41:53.506Z,17.47
2019-06-20T18:44:20.809Z,9.20
2019-06-20T18:46:48.060Z,12.10
2019-06-20T18:49:15.429Z,8.53
2019-06-20T18:51:42.541Z,10.83
2019-06-20T18:54:09.843Z,9.73
2019-06-20T18:56:37.203Z,9.03
2019-06-20T18:59:04.564Z,8.43
2019-06-20T19:01:31.926Z,8.87
2019-06-20T19:03:59.195Z,8.70
2019-06-20T19:06:35.508Z,11.53
2019-06-20T19:08:55.749Z,8.90
2019-06-20T19:11:22.977Z,10.90
2019-06-20T19:13:52.243Z,12.47
2019-06-20T19:16:40.035Z,12.37
2019-06-20T19:19:14.335Z,11.17
2019-06-20T19:21:41.873Z,19.93
2019-06-20T19:24:11.911Z,8.73
2019-06-20T19:26:38.960Z,8.30
2019-06-20T19:29:05.948Z,9.73
2019-06-20T19:31:43.774Z,5.10
2019-06-20T19:34:11.042Z,9.17
2019-06-20T19:36:42.433Z,8.40
2019-06-20T19:39:11.563Z,6.37
2019-06-20T19:41:38.784Z,8.23
2019-06-20T19:44:06.794Z,4.17
2019-06-20T19:46:35.591Z,10.30
2019-06-20T19:49:06.073Z,6.07
2019-06-20T19:51:33.480Z,8.17
2019-06-20T19:54:02.958Z,10.00
2019-06-20T19:56:31.352Z,8.37
2019-06-20T19:59:01.845Z,7.63
2019-06-20T20:01:30.980Z,8.57
2019-06-20T20:03:58.281Z,6.90
2019-06-20T20:06:29.122Z,5.80
2019-06-20T20:08:57.101Z,3.90
2019-06-20T20:11:35.523Z,6.93
2019-06-20T20:14:02.956Z,9.87
2019-06-20T20:16:33.555Z,8.07
2019-06-20T20:19:00.685Z,5.90
2019-06-20T20:21:27.762Z,5.70
2019-06-20T20:23:54.791Z,3.40
2019-06-20T20:26:21.794Z,6.83
2019-06-20T20:28:48.876Z,8.13
2019-06-20T20:31:15.884Z,5.53
2019-06-20T20:33:42.876Z,4.50
2019-06-20T20:36:23.988Z,3.73
2019-06-20T20:38:38.822Z,7.23
2019-06-20T20:41:05.875Z,3.60
2019-06-20T20:43:32.908Z,3.90
2019-06-20T20:45:59.941Z,3.47
2019-06-20T20:48:27.015Z,3.03
2019-06-20T20:50:54.051Z,5.77
2019-06-20T20:53:21.089Z,8.80
2019-06-20T20:55:48.073Z,8.37
2019-06-20T20:58:15.112Z,4.60
2019-06-20T21:00:46.606Z,4.30
2019-06-20T21:03:13.653Z,4.20
2019-06-20T21:05:50.958Z,4.80
2019-06-20T21:08:09.620Z,5.33
2019-06-20T21:10:36.736Z,3.60
2019-06-20T21:13:03.777Z,3.50
2019-06-20T21:15:30.770Z,4.50
2019-06-20T21:17:57.814Z,3.13
2019-06-20T21:20:24.971Z,4.03
2019-06-20T21:22:51.971Z,4.70
2019-06-20T21:25:19.037Z,4.00
2019-06-20T21:27:46.150Z,3.53
2019-06-20T21:30:14.166Z,6.00
2019-06-20T21:32:41.288Z,5.30
2019-06-20T21:35:11.432Z,3.50
2019-06-20T21:37:38.633Z,7.27
2019-06-20T21:40:05.679Z,4.53
2019-06-20T21:42:32.811Z,5.73
2019-06-20T21:44:59.853Z,2.50
2019-06-20T21:47:26.891Z,6.47
2019-06-20T21:49:53.915Z,3.70
2019-06-20T21:52:20.937Z,5.63
2019-06-20T21:54:47.977Z,6.80
2019-06-20T21:57:15.171Z,3.03
2019-06-20T21:59:42.173Z,9.93
2019-06-20T22:02:09.223Z,8.13
2019-06-20T22:04:36.252Z,3.50
2019-06-20T22:07:03.288Z,4.20
2019-06-20T22:09:30.294Z,3.70
2019-06-20T22:11:57.333Z,4.83
2019-06-20T22:14:24.372Z,2.80
2019-06-20T22:16:51.459Z,4.33
2019-06-20T22:19:18.539Z,2.73
2019-06-20T22:21:54.661Z,3.30
2019-06-20T22:24:21.767Z,5.03
2019-06-20T22:26:48.779Z,9.13
2019-06-20T22:29:15.839Z,9.27
2019-06-20T22:31:42.948Z,5.60
2019-06-20T22:34:10.014Z,5.47
2019-06-20T22:36:40.548Z,3.37
2019-06-20T22:39:07.083Z,4.13
2019-06-20T22:41:34.096Z,4.87
2019-06-20T22:44:01.089Z,4.83
2019-06-20T22:46:28.115Z,2.70
2019-06-20T22:48:55.118Z,4.67
2019-06-20T22:51:22.137Z,3.40
2019-06-20T22:53:49.152Z,3.50
2019-06-20T22:56:16.129Z,5.00
2019-06-20T22:58:43.173Z,2.70
2019-06-20T23:01:10.255Z,3.67
2019-06-20T23:03:37.243Z,7.47
2019-06-20T23:06:04.278Z,3.17
2019-06-20T23:08:31.401Z,2.57
2019-06-20T23:10:58.405Z,5.50
2019-06-20T23:13:25.548Z,4.50
2019-06-20T23:15:52.580Z,6.40
2019-06-20T23:18:19.584Z,3.20
2019-06-20T23:21:03.659Z,4.67
2019-06-20T23:23:15.614Z,4.03
2019-06-20T23:25:44.942Z,4.27
2019-06-20T23:28:11.935Z,4.33
2019-06-20T23:30:38.989Z,4.07
2019-06-20T23:33:06.050Z,9.40
2019-06-20T23:35:33.265Z,2.90
2019-06-20T23:38:00.271Z,3.97
2019-06-20T23:40:27.311Z,3.50
2019-06-20T23:42:54.312Z,3.00
2019-06-20T23:45:21.349Z,2.90
2019-06-20T23:47:48.710Z,12.53
2019-06-20T23:50:18.929Z,5.17
2019-06-20T23:52:48.735Z,4.53
2019-06-20T23:55:16.097Z,8.13
2019-06-20T23:57:43.554Z,6.90
